Aviation Digital Data Service (ADDS)

Output produced by TAFs form (1624 UTC 30 May 2016)
found at http://aviationweather.gov/adds/tafs/
 
KASE 301126Z 3012/3112 VRB03KT P6SM FEW120 SCT250 
     FM301400 20007KT P6SM SCT120 SCT250 
     FM301700 36009KT P6SM SCT110 SCT250 
     FM302000 34010G19KT P6SM VCTS SCT090CB BKN180 
     FM310200 21007KT P6SM SCT200 
     FM310500 13004KT P6SM SCT250